Main page
METAR-TAF:

METAR-TAF

Airports :

Olaya Herrera Airport

Medellín, Colombia

latitude: 06-13N, longitude: 075-36W, elevation: 1490 m

Current weather observation

The report was made 10 hours and 3 minutes ago, at 23:00 UTC
Wind 11 kt from the North/Northwest, varying between West and North
Temperature 26°C
Humidity 51%
Pressure 1016 hPa
Visibility 10 km or more
Few clouds at a height of 4500 ft

METAR: SKMD 172300Z 33011KT 260V360 9999 FEW045 26/15 Q1016

Time: 04:03 (09:03 UTC)


TAF: missing

Weather observations and forecasts of more than 4000 airports (METAR and TAF reports).

The available stations are represented by yellow and red dots on the map.

Hover mouse over dot to see the name of the station.

Then click to see weather observations and forecasts.

To change the map : click on the green buttons with a black cross to zoom in, on the green button with a dash to zoom out, or on the green arrows for adjacent maps.


METAR-TAF: